Time;durP1;ratioP1;P1;durP2;ratioP2;P2;SDS_P1;SDS_P2;PMS_P1;PMS_P2;Temp;Humidity;BMP_temperature;BMP_pressure;BME280_temperature;BME280_humidity;BME280_pressure;Samples;Min_cycle;Max_cycle;Signal;HPM_P1;HPM_P2
2021/12/03 00:01:07;;;;;;;28.20;16.80;;;;;;;2.84;78.87;96433.97;5047685;28;20189;-64
2021/12/03 00:03:35;;;;;;;28.50;15.53;;;;;;;2.71;79.44;96436.84;5047000;28;20219;-62
2021/12/03 00:06:02;;;;;;;31.03;15.90;;;;;;;2.63;80.18;96451.53;5047077;28;20583;-62
2021/12/03 00:08:29;;;;;;;26.10;16.27;;;;;;;2.71;79.48;96455.59;5047541;28;20190;-61
2021/12/03 00:10:59;;;;;;;25.60;16.87;;;;;;;2.51;80.22;96445.00;5046658;28;20769;-61
2021/12/03 00:13:28;;;;;;;27.70;16.17;;;;;;;2.57;80.74;96451.69;5047499;28;20193;-61
2021/12/03 00:15:57;;;;;;;20.20;13.93;;;;;;;2.27;81.13;96441.31;5046564;28;20669;-62
2021/12/03 00:18:24;;;;;;;37.73;20.57;;;;;;;1.97;82.84;96441.16;5047095;28;20209;-62
2021/12/03 00:20:52;;;;;;;27.97;17.63;;;;;;;1.91;83.88;96439.59;5046996;28;20193;-62
2021/12/03 00:23:22;;;;;;;22.50;15.10;;;;;;;2.02;82.72;96421.47;5046832;28;20620;-63
2021/12/03 00:25:49;;;;;;;26.80;15.20;;;;;;;2.34;82.17;96430.09;5046985;28;20194;-63
2021/12/03 00:28:16;;;;;;;26.00;14.30;;;;;;;2.49;81.02;96426.31;5046491;28;20201;-62
2021/12/03 00:30:43;;;;;;;28.70;16.17;;;;;;;2.69;80.98;96431.78;5047180;28;20228;-62
2021/12/03 00:33:12;;;;;;;25.43;16.37;;;;;;;2.55;80.38;96440.66;5046494;28;20582;-63
2021/12/03 00:35:39;;;;;;;26.10;16.20;;;;;;;1.97;81.31;96451.38;5046806;28;20210;-65
2021/12/03 00:38:07;;;;;;;21.67;14.53;;;;;;;1.47;82.68;96445.63;5046726;28;20297;-63
2021/12/03 00:40:38;;;;;;;23.13;13.30;;;;;;;1.27;84.13;96436.66;5046583;28;20216;-66
2021/12/03 00:43:07;;;;;;;23.03;14.13;;;;;;;1.21;85.57;96427.44;5046710;28;20237;-65
2021/12/03 00:45:35;;;;;;;23.00;14.77;;;;;;;1.44;85.55;96438.00;5045969;28;20227;-64
2021/12/03 00:48:02;;;;;;;20.30;12.67;;;;;;;1.58;85.08;96438.59;5047205;28;20194;-63
2021/12/03 00:50:31;;;;;;;24.13;13.30;;;;;;;1.63;84.93;96436.75;5046132;28;20217;-65
2021/12/03 00:53:00;;;;;;;19.00;12.23;;;;;;;1.89;83.70;96436.22;5046544;28;20204;-62
2021/12/03 00:55:28;;;;;;;18.90;12.43;;;;;;;2.05;83.58;96436.72;5046169;28;20228;-63
2021/12/03 00:57:56;;;;;;;21.37;13.03;;;;;;;2.18;82.32;96425.38;5046355;28;20202;-62
2021/12/03 01:00:27;;;;;;;20.93;13.10;;;;;;;2.08;81.99;96419.59;5045437;28;20204;-63
2021/12/03 01:02:56;;;;;;;22.73;13.50;;;;;;;2.16;82.98;96406.69;5046024;28;20676;-63
2021/12/03 01:05:24;;;;;;;22.30;14.13;;;;;;;2.09;82.33;96407.69;5046803;28;20186;-64
2021/12/03 01:07:51;;;;;;;21.23;13.40;;;;;;;2.11;81.97;96418.69;5046417;28;20584;-66
2021/12/03 01:10:19;;;;;;;18.03;12.07;;;;;;;2.18;82.22;96420.25;5046501;28;20236;-65
2021/12/03 01:12:46;;;;;;;23.97;13.50;;;;;;;2.28;81.12;96403.84;5046471;28;20236;-65
2021/12/03 01:15:17;;;;;;;20.07;13.03;;;;;;;2.32;80.80;96395.22;5046275;28;20255;-66
2021/12/03 01:17:45;;;;;;;22.67;13.50;;;;;;;2.22;81.42;96386.94;5046823;28;20197;-62
2021/12/03 01:20:13;;;;;;;25.13;13.77;;;;;;;2.14;81.54;96403.31;5046004;28;20495;-62
2021/12/03 01:22:42;;;;;;;20.83;13.10;;;;;;;1.98;81.08;96407.94;5046629;28;20197;-62
2021/12/03 01:25:12;;;;;;;22.47;13.33;;;;;;;1.60;83.72;96401.13;5046138;28;20190;-62
2021/12/03 01:27:39;;;;;;;22.77;13.70;;;;;;;1.47;84.55;96384.38;5046232;28;20198;-66
2021/12/03 01:30:10;;;;;;;22.23;15.70;;;;;;;1.44;86.18;96384.44;5046348;28;20630;-63
2021/12/03 01:32:38;;;;;;;22.57;13.43;;;;;;;1.59;86.25;96388.38;5045827;28;20681;-61
2021/12/03 01:35:06;;;;;;;24.07;14.17;;;;;;;1.63;85.40;96390.84;5046517;28;20224;-62
2021/12/03 01:37:33;;;;;;;20.97;13.60;;;;;;;1.65;86.13;96401.00;5045564;28;20185;-61
2021/12/03 01:40:01;;;;;;;18.77;12.60;;;;;;;1.72;86.74;96394.91;5046387;28;20224;-61
2021/12/03 01:42:29;;;;;;;19.87;12.27;;;;;;;1.84;85.81;96394.63;5045918;28;20225;-62
2021/12/03 01:44:56;;;;;;;18.63;12.17;;;;;;;1.87;85.25;96388.63;5046019;28;20190;-62
2021/12/03 01:47:23;;;;;;;23.43;14.17;;;;;;;2.06;83.96;96392.44;5046141;28;20731;-62
2021/12/03 01:49:50;;;;;;;22.87;13.53;;;;;;;2.07;83.71;96396.66;5045640;28;20205;-62
2021/12/03 01:52:17;;;;;;;25.17;14.10;;;;;;;2.07;82.86;96376.25;5046271;28;20681;-63
2021/12/03 01:54:44;;;;;;;22.77;12.87;;;;;;;2.18;82.81;96380.25;5045436;28;20182;-64
2021/12/03 01:57:11;;;;;;;21.13;12.23;;;;;;;2.21;82.35;96402.28;5046288;28;20750;-63
2021/12/03 01:59:38;;;;;;;19.27;11.23;;;;;;;2.20;81.82;96411.69;5045967;28;20524;-62
2021/12/03 02:02:06;;;;;;;16.17;10.17;;;;;;;2.25;82.02;96416.66;5044658;28;20198;-64
2021/12/03 02:04:33;;;;;;;18.73;12.57;;;;;;;2.12;81.80;96405.88;5045979;28;20256;-62
2021/12/03 02:07:00;;;;;;;19.80;12.47;;;;;;;1.94;81.43;96416.53;5046733;28;20194;-62
2021/12/03 02:09:27;;;;;;;21.20;13.63;;;;;;;1.70;82.60;96398.34;5049802;28;20597;-61
2021/12/03 02:11:54;;;;;;;18.47;11.77;;;;;;;1.51;84.31;96403.00;5049067;28;20702;-65
2021/12/03 02:14:21;;;;;;;19.50;11.07;;;;;;;1.70;84.38;96406.88;5049633;28;20190;-63
2021/12/03 02:16:48;;;;;;;17.60;11.20;;;;;;;1.95;82.83;96404.59;5049115;28;20335;-63
2021/12/03 02:19:15;;;;;;;19.47;11.37;;;;;;;2.09;82.68;96394.91;5049295;28;20198;-65
2021/12/03 02:21:42;;;;;;;18.23;10.70;;;;;;;2.31;82.20;96411.41;5049348;28;20251;-65
2021/12/03 02:24:10;;;;;;;17.53;11.50;;;;;;;2.41;80.76;96389.91;5049194;28;20189;-62
2021/12/03 02:26:37;;;;;;;16.07;11.30;;;;;;;2.59;80.83;96402.22;5049550;28;20669;-62
2021/12/03 02:29:04;;;;;;;14.97;11.30;;;;;;;2.54;81.02;96404.03;5048759;28;20290;-62
2021/12/03 02:31:31;;;;;;;21.50;13.93;;;;;;;2.28;81.50;96402.13;5048118;28;20275;-65
2021/12/03 02:33:58;;;;;;;19.90;12.43;;;;;;;2.48;80.86;96414.41;5048543;28;20209;-65
2021/12/03 02:36:25;;;;;;;22.03;13.00;;;;;;;2.42;81.46;96399.22;5049095;28;20227;-65
2021/12/03 02:38:53;;;;;;;20.33;12.30;;;;;;;2.38;82.10;96413.81;5048881;28;20200;-64
2021/12/03 02:41:20;;;;;;;22.03;12.43;;;;;;;2.21;82.85;96398.03;5048519;28;20198;-66
2021/12/03 02:43:47;;;;;;;20.10;12.70;;;;;;;2.54;81.59;96392.97;5049180;28;20267;-65
2021/12/03 02:46:14;;;;;;;23.10;13.80;;;;;;;2.40;81.28;96376.28;5048297;28;20271;-65
2021/12/03 02:48:42;;;;;;;25.37;14.10;;;;;;;2.56;81.07;96381.00;5049153;28;20202;-62
2021/12/03 02:51:10;;;;;;;22.73;12.43;;;;;;;2.58;80.58;96372.41;5048674;28;20233;-63
2021/12/03 02:53:37;;;;;;;26.80;15.70;;;;;;;2.58;81.13;96369.84;5049016;28;20206;-65
2021/12/03 02:56:06;;;;;;;28.17;13.97;;;;;;;2.49;81.36;96372.66;5048703;28;20190;-64
2021/12/03 02:58:33;;;;;;;25.07;14.90;;;;;;;2.42;81.71;96394.13;5048338;28;20255;-65
2021/12/03 03:01:03;;;;;;;18.77;12.27;;;;;;;2.60;81.69;96414.09;5048867;28;20194;-62
2021/12/03 03:03:29;;;;;;;21.93;14.03;;;;;;;2.79;80.94;96400.00;5047977;28;20186;-63
2021/12/03 03:05:59;;;;;;;21.23;13.10;;;;;;;2.82;79.59;96393.97;5048755;28;20190;-62
2021/12/03 03:08:27;;;;;;;18.73;12.43;;;;;;;2.40;81.20;96396.72;5048188;28;20684;-63
2021/12/03 03:10:56;;;;;;;20.53;12.47;;;;;;;2.18;81.96;96407.47;5048366;28;20609;-64
2021/12/03 03:13:23;;;;;;;17.93;12.00;;;;;;;2.01;81.63;96405.31;5048333;28;20205;-62
2021/12/03 03:15:51;;;;;;;20.37;11.57;;;;;;;1.94;82.24;96411.41;5048416;28;20193;-62
2021/12/03 03:18:21;;;;;;;14.77;9.97;;;;;;;1.89;82.70;96399.66;5048319;28;20248;-62
2021/12/03 03:20:51;;;;;;;15.73;9.63;;;;;;;1.80;82.56;96394.72;5047774;28;20204;-63
2021/12/03 03:23:18;;;;;;;16.27;9.70;;;;;;;1.79;83.66;96395.63;5048223;28;20296;-62
2021/12/03 03:25:46;;;;;;;13.07;9.43;;;;;;;1.75;84.19;96399.13;5047788;28;20232;-62
2021/12/03 03:28:14;;;;;;;14.43;9.33;;;;;;;1.94;83.93;96390.19;5048020;28;20205;-62
2021/12/03 03:30:44;;;;;;;13.83;9.20;;;;;;;1.86;83.52;96386.94;5047953;28;20229;-62
2021/12/03 03:33:13;;;;;;;20.60;9.30;;;;;;;2.11;82.82;96398.28;5047783;28;20281;-62
2021/12/03 03:35:40;;;;;;;15.57;9.30;;;;;;;2.24;82.22;96402.22;5048382;28;20251;-63
2021/12/03 03:38:08;;;;;;;15.70;9.37;;;;;;;2.29;81.88;96397.84;5047341;28;20189;-62
2021/12/03 03:40:36;;;;;;;15.17;9.07;;;;;;;2.10;82.26;96406.81;5048013;28;20510;-62
2021/12/03 03:43:04;;;;;;;20.50;11.70;;;;;;;1.88;82.89;96393.69;5047420;28;20245;-64
2021/12/03 03:45:31;;;;;;;19.47;10.90;;;;;;;1.85;83.91;96413.34;5047492;28;20193;-61
2021/12/03 03:47:59;;;;;;;17.87;10.90;;;;;;;1.84;84.82;96407.41;5047910;28;20198;-61
2021/12/03 03:50:27;;;;;;;16.83;10.23;;;;;;;1.93;84.33;96404.66;5047166;28;20669;-64
2021/12/03 03:52:56;;;;;;;17.73;10.33;;;;;;;2.06;84.45;96397.56;5048053;28;20193;-62
2021/12/03 03:55:25;;;;;;;16.20;10.30;;;;;;;2.15;84.29;96392.22;5047038;28;20189;-62
2021/12/03 03:57:55;;;;;;;15.93;9.87;;;;;;;2.33;83.69;96397.72;5047598;28;20244;-62
2021/12/03 04:00:30;;;;;;;17.07;10.30;;;;;;;2.55;83.40;96390.41;5047173;28;20198;-63
2021/12/03 04:02:57;;;;;;;13.93;9.57;;;;;;;2.65;82.88;96386.72;5047393;28;20232;-62
2021/12/03 04:05:25;;;;;;;15.87;10.33;;;;;;;2.73;82.09;96394.19;5062807;28;20186;-62
2021/12/03 04:07:52;;;;;;;16.33;10.73;;;;;;;2.79;81.89;96387.22;5046848;28;20731;-65
2021/12/03 04:10:19;;;;;;;19.50;12.30;;;;;;;2.89;81.45;96386.09;5047605;28;20189;-64
2021/12/03 04:12:46;;;;;;;19.67;12.13;;;;;;;2.86;81.25;96375.09;5061936;28;20229;-63
2021/12/03 04:15:14;;;;;;;29.90;12.87;;;;;;;2.93;80.78;96385.13;5052182;28;20266;-61
2021/12/03 04:17:41;;;;;;;20.10;12.93;;;;;;;3.01;80.41;96380.63;5067149;28;20254;-62
2021/12/03 04:20:11;;;;;;;24.57;13.93;;;;;;;3.08;79.80;96377.06;5066954;28;20192;-62
2021/12/03 04:22:39;;;;;;;22.93;14.07;;;;;;;3.09;79.56;96394.06;5065919;28;20579;-62
2021/12/03 04:25:08;;;;;;;23.43;13.83;;;;;;;3.05;79.87;96391.66;5066409;28;20189;-62
2021/12/03 04:27:36;;;;;;;24.87;14.33;;;;;;;3.01;80.71;96398.53;5067311;28;20185;-64
2021/12/03 04:30:07;;;;;;;21.33;13.40;;;;;;;3.07;80.10;96402.69;5066015;28;20250;-64
2021/12/03 04:32:34;;;;;;;21.93;13.87;;;;;;;2.95;80.49;96414.03;5047435;28;20669;-65
2021/12/03 04:35:01;;;;;;;22.90;13.53;;;;;;;2.98;80.05;96416.53;5051562;28;20623;-64
2021/12/03 04:37:28;;;;;;;19.47;14.13;;;;;;;2.97;80.77;96424.22;5066556;28;20227;-64
2021/12/03 04:39:55;;;;;;;26.63;14.20;;;;;;;3.03;79.68;96424.09;5065986;28;20550;-66
2021/12/03 04:42:22;;;;;;;24.37;15.43;;;;;;;3.01;80.13;96415.63;5066158;28;20232;-64
2021/12/03 04:44:49;;;;;;;28.17;17.37;;;;;;;2.89;80.22;96421.88;5066930;28;20197;-62
2021/12/03 04:47:16;;;;;;;34.87;22.17;;;;;;;2.73;81.00;96430.81;5066147;28;20235;-62
2021/12/03 04:49:43;;;;;;;35.43;22.03;;;;;;;2.73;81.20;96427.41;5063800;28;20281;-62
2021/12/03 04:52:10;;;;;;;37.30;22.03;;;;;;;2.75;81.45;96423.94;5046552;28;20263;-64
2021/12/03 04:54:37;;;;;;;43.90;24.73;;;;;;;2.55;81.54;96425.31;5046380;28;20197;-60
2021/12/03 04:57:04;;;;;;;34.50;19.80;;;;;;;2.44;82.36;96438.34;5046928;28;20455;-64
2021/12/03 04:59:32;;;;;;;29.47;18.00;;;;;;;2.50;82.41;96417.75;5046261;28;20228;-62
2021/12/03 05:01:59;;;;;;;26.87;16.00;;;;;;;2.62;82.74;96424.31;5047093;28;20198;-64
2021/12/03 05:04:27;;;;;;;21.03;12.80;;;;;;;2.45;82.73;96384.66;5045977;28;20573;-63
2021/12/03 05:09:22;;;;;;;25.80;14.93;;;;;;;2.78;81.64;96411.06;5046308;28;20255;-65
2021/12/03 05:11:49;;;;;;;27.50;14.90;;;;;;;2.74;82.19;96394.16;5046154;28;20225;-62
2021/12/03 05:14:17;;;;;;;21.63;14.10;;;;;;;2.83;81.26;96401.59;5046333;28;20212;-65
2021/12/03 05:16:45;;;;;;;24.67;14.57;;;;;;;2.86;81.39;96413.47;5045852;28;20202;-63
2021/12/03 05:19:12;;;;;;;32.10;15.57;;;;;;;2.83;81.29;96429.72;5046589;28;20189;-65
2021/12/03 05:21:40;;;;;;;37.27;20.50;;;;;;;2.83;81.87;96434.81;5046084;28;20772;-65
2021/12/03 05:24:07;;;;;;;43.70;26.20;;;;;;;2.95;81.04;96424.28;5044761;28;20204;-64
2021/12/03 05:26:37;;;;;;;46.20;24.10;;;;;;;2.93;80.80;96431.16;5046004;28;20201;-62
2021/12/03 05:29:07;;;;;;;42.33;21.83;;;;;;;2.99;80.67;96427.59;5046044;28;20331;-62
2021/12/03 05:31:35;;;;;;;35.53;20.33;;;;;;;3.02;80.63;96427.50;5046236;28;20221;-62
2021/12/03 05:34:23;;;;;;;33.27;18.57;;;;;;;2.93;80.86;96448.19;5045594;28;20729;-62
2021/12/03 05:36:50;;;;;;;24.37;15.87;;;;;;;2.85;80.52;96445.84;5046209;28;20202;-62
2021/12/03 05:39:17;;;;;;;25.87;15.50;;;;;;;2.84;80.32;96456.13;5045686;28;20194;-63
2021/12/03 05:41:44;;;;;;;24.87;14.97;;;;;;;2.78;80.56;96459.66;5046711;28;20295;-65
2021/12/03 05:44:13;;;;;;;31.60;17.10;;;;;;;2.66;81.53;96459.94;5049961;28;20201;-62
2021/12/03 05:46:40;;;;;;;36.20;18.50;;;;;;;2.75;82.08;96467.41;5049280;28;20689;-64
2021/12/03 05:49:08;;;;;;;37.73;19.50;;;;;;;2.75;81.23;96474.22;5050101;28;20205;-63
2021/12/03 05:51:35;;;;;;;33.23;21.30;;;;;;;2.83;81.73;96475.72;5048888;28;20213;-62
2021/12/03 05:54:02;;;;;;;36.13;22.13;;;;;;;2.72;81.15;96477.69;5050009;28;20661;-62
2021/12/03 05:56:29;;;;;;;38.83;22.30;;;;;;;2.65;81.82;96472.78;5049109;28;20201;-62
2021/12/03 05:58:59;;;;;;;49.37;23.37;;;;;;;2.68;81.63;96465.88;5049392;28;20216;-61
2021/12/03 06:01:27;;;;;;;34.57;22.27;;;;;;;2.57;82.73;96449.97;5049519;28;20689;-65
2021/12/03 06:03:55;;;;;;;43.17;24.00;;;;;;;2.55;82.15;96461.09;5048718;28;20206;-65
2021/12/03 06:06:24;;;;;;;34.30;20.77;;;;;;;2.40;83.02;96452.06;5048186;28;20241;-65
2021/12/03 06:08:51;;;;;;;34.30;20.37;;;;;;;2.50;83.11;96463.75;5048527;28;20207;-62
2021/12/03 06:11:18;;;;;;;50.53;21.50;;;;;;;2.68;82.57;96468.41;5049396;28;20218;-64
2021/12/03 06:13:45;;;;;;;38.33;22.47;;;;;;;2.80;82.51;96468.16;5047470;28;20225;-64
2021/12/03 06:16:13;;;;;;;39.77;24.47;;;;;;;2.88;81.69;96470.50;5049284;28;20216;-63
2021/12/03 06:18:41;;;;;;;48.23;25.07;;;;;;;2.89;81.97;96465.34;5049041;28;20206;-61
2021/12/03 06:21:11;;;;;;;46.43;24.00;;;;;;;3.03;81.27;96476.06;5048748;28;20197;-61
2021/12/03 06:23:39;;;;;;;47.77;25.43;;;;;;;3.08;81.05;96475.94;5048180;28;20363;-64
2021/12/03 06:26:07;;;;;;;41.50;25.03;;;;;;;2.83;81.66;96468.06;5048255;28;20288;-62
2021/12/03 06:28:36;;;;;;;42.60;25.00;;;;;;;2.76;81.45;96486.97;5049237;28;20447;-65
2021/12/03 06:31:04;;;;;;;37.13;22.17;;;;;;;2.27;82.39;96440.44;5048839;28;20197;-61
2021/12/03 06:33:31;;;;;;;34.63;22.10;;;;;;;2.40;82.94;96487.84;5048580;28;20228;-61
2021/12/03 06:35:58;;;;;;;31.07;19.73;;;;;;;2.31;83.43;96490.59;5048865;28;20672;-61
2021/12/03 06:38:26;;;;;;;30.20;18.83;;;;;;;2.21;84.59;96474.66;5048247;28;20605;-61
2021/12/03 06:40:53;;;;;;;32.27;18.07;;;;;;;2.28;84.36;96493.25;5049079;28;20583;-61
2021/12/03 06:43:21;;;;;;;26.83;15.80;;;;;;;2.24;83.92;96491.63;5047877;28;20239;-63
2021/12/03 06:45:48;;;;;;;35.37;21.03;;;;;;;2.30;85.03;96491.50;5047528;28;20243;-65
2021/12/03 06:48:16;;;;;;;33.13;17.43;;;;;;;2.47;83.96;96495.31;5048160;28;20210;-66
2021/12/03 06:50:45;;;;;;;32.67;18.83;;;;;;;2.63;83.90;96503.50;5046934;28;20204;-62
2021/12/03 06:53:14;;;;;;;27.70;16.73;;;;;;;2.86;82.59;96503.78;5048309;28;20248;-64
2021/12/03 06:55:53;;;;;;;38.63;18.87;;;;;;;2.92;82.50;96511.31;5047923;28;20190;-64
2021/12/03 06:58:21;;;;;;;37.67;21.37;;;;;;;2.93;82.21;96518.09;5063965;28;20182;-64
2021/12/03 07:00:51;;;;;;;36.90;21.10;;;;;;;2.76;82.21;96517.66;5046431;28;20205;-64
2021/12/03 07:03:18;;;;;;;36.70;19.63;;;;;;;2.62;82.84;96521.44;5048483;28;20204;-65
2021/12/03 07:05:47;;;;;;;29.27;18.43;;;;;;;2.49;82.86;96534.47;5047594;28;20301;-66
2021/12/03 07:08:14;;;;;;;30.13;17.73;;;;;;;2.63;83.12;96529.06;5047933;28;20197;-65
2021/12/03 07:10:41;;;;;;;27.60;17.30;;;;;;;2.61;83.79;96528.25;5030356;28;20673;-65
2021/12/03 07:13:08;;;;;;;33.20;19.27;;;;;;;2.69;83.64;96518.69;5046915;28;20695;-66
2021/12/03 07:15:36;;;;;;;36.73;22.60;;;;;;;2.87;82.94;96519.94;5048190;28;20193;-62
2021/12/03 07:18:03;;;;;;;49.43;28.30;;;;;;;3.10;82.85;96499.78;5047156;28;20270;-66
2021/12/03 07:20:31;;;;;;;82.60;39.97;;;;;;;3.21;81.80;96510.56;5048158;28;20722;-64
2021/12/03 07:22:58;;;;;;;43.73;26.93;;;;;;;3.37;81.52;96511.00;5047405;28;20220;-66
2021/12/03 07:25:25;;;;;;;88.77;42.17;;;;;;;3.47;81.07;96502.19;5046371;28;20203;-62
2021/12/03 07:27:52;;;;;;;67.60;34.00;;;;;;;3.54;80.98;96501.16;5047451;28;20182;-64
2021/12/03 07:30:21;;;;;;;47.43;23.80;;;;;;;3.58;80.28;96516.41;5045739;28;20204;-64
2021/12/03 07:32:48;;;;;;;34.70;21.90;;;;;;;3.56;80.17;96512.22;5047719;28;20717;-65
2021/12/03 07:35:15;;;;;;;36.20;18.93;;;;;;;3.57;80.63;96516.44;5047242;28;20210;-66
2021/12/03 07:37:43;;;;;;;23.50;16.57;;;;;;;3.61;80.88;96520.59;5047887;28;20652;-66
2021/12/03 07:40:12;;;;;;;28.93;16.33;;;;;;;3.54;80.59;96525.06;5047143;28;20293;-65
2021/12/03 07:42:40;;;;;;;22.50;14.63;;;;;;;3.40;81.42;96498.16;5046964;28;20225;-64
2021/12/03 07:45:10;;;;;;;25.50;16.37;;;;;;;3.42;82.04;96535.59;5046270;28;20285;-66
2021/12/03 07:47:37;;;;;;;28.43;17.10;;;;;;;3.44;82.52;96518.50;5046508;28;20220;-65
2021/12/03 07:50:10;;;;;;;37.57;19.03;;;;;;;3.61;82.83;96530.81;5047559;28;20208;-65
2021/12/03 07:52:37;;;;;;;31.43;18.63;;;;;;;3.69;82.34;96527.19;5046241;28;20242;-64
2021/12/03 07:55:06;;;;;;;29.63;16.03;;;;;;;3.84;82.02;96528.47;5046541;28;20228;-64
2021/12/03 07:57:35;;;;;;;28.00;17.30;;;;;;;4.06;81.66;96537.25;5046746;28;20198;-65
2021/12/03 08:00:06;;;;;;;44.43;24.80;;;;;;;4.15;80.80;96537.00;5044639;28;20288;-65
2021/12/03 08:02:40;;;;;;;33.37;20.77;;;;;;;4.23;80.91;96547.00;5046758;28;20181;-65
2021/12/03 08:05:08;;;;;;;29.53;16.10;;;;;;;4.25;80.79;96535.00;5044868;28;20210;-65
2021/12/03 08:07:35;;;;;;;21.50;14.73;;;;;;;4.14;81.33;96527.63;5046908;28;20195;-65
2021/12/03 08:10:03;;;;;;;25.80;16.00;;;;;;;4.15;81.96;96526.75;5046307;28;20256;-66
2021/12/03 08:12:30;;;;;;;21.37;14.80;;;;;;;4.22;81.60;96520.56;5046205;28;20233;-65
2021/12/03 08:14:57;;;;;;;28.87;15.93;;;;;;;4.50;81.45;96526.53;5046720;28;20217;-65
2021/12/03 08:17:24;;;;;;;24.77;14.60;;;;;;;4.53;80.44;96528.19;5046299;28;20722;-65
2021/12/03 08:19:51;;;;;;;26.57;16.67;;;;;;;4.67;80.40;96526.88;5045389;28;20213;-63
2021/12/03 08:22:20;;;;;;;25.73;15.07;;;;;;;4.77;80.29;96525.69;5045925;28;20186;-64
2021/12/03 08:24:47;;;;;;;29.53;17.60;;;;;;;4.84;79.68;96524.59;5046490;28;20192;-63
2021/12/03 08:27:15;;;;;;;28.30;19.63;;;;;;;4.97;79.73;96524.22;5046257;28;20190;-64
2021/12/03 08:29:42;;;;;;;30.47;18.03;;;;;;;5.02;79.81;96524.91;5046426;28;20197;-64
2021/12/03 08:32:10;;;;;;;31.40;18.83;;;;;;;5.07;80.04;96544.38;5044662;28;20666;-65
2021/12/03 08:34:37;;;;;;;28.87;17.60;;;;;;;5.19;79.48;96540.59;5045799;28;20256;-62
2021/12/03 08:37:07;;;;;;;30.30;18.43;;;;;;;5.21;79.29;96541.38;5046800;28;20209;-63
2021/12/03 08:39:35;;;;;;;33.40;20.33;;;;;;;5.25;79.28;96530.97;5045348;28;20201;-63
2021/12/03 08:42:04;;;;;;;32.03;17.83;;;;;;;5.38;79.47;96529.66;5045811;28;20587;-63
2021/12/03 08:44:31;;;;;;;43.80;19.73;;;;;;;5.49;79.46;96532.72;5043974;28;20205;-62
2021/12/03 08:47:01;;;;;;;33.87;17.93;;;;;;;5.53;78.34;96518.88;5045922;28;20190;-64
2021/12/03 08:49:35;;;;;;;33.30;20.00;;;;;;;5.62;78.54;96522.88;5045506;28;20723;-64
2021/12/03 08:52:28;;;;;;;34.97;21.80;;;;;;;5.72;78.52;96525.06;5044902;28;20709;-64
2021/12/03 08:54:57;;;;;;;35.60;19.47;;;;;;;5.78;77.55;96514.56;5046652;28;20205;-64
2021/12/03 08:57:30;;;;;;;34.93;20.23;;;;;;;5.82;77.26;96510.16;5045750;28;20222;-65
2021/12/03 09:00:19;;;;;;;33.23;19.43;;;;;;;5.85;77.77;96499.81;5045565;28;20203;-65
2021/12/03 09:02:47;;;;;;;30.30;18.77;;;;;;;5.76;78.13;96482.13;5045751;28;20205;-66
2021/12/03 09:05:15;;;;;;;24.97;16.30;;;;;;;5.70;78.81;96501.16;5044938;28;20710;-66
2021/12/03 09:07:44;;;;;;;36.07;18.90;;;;;;;5.84;78.25;96499.84;5044780;28;20383;-66
2021/12/03 09:10:19;;;;;;;25.07;15.70;;;;;;;5.90;78.56;96497.06;5045352;28;20186;-65
2021/12/03 09:12:46;;;;;;;27.80;16.97;;;;;;;5.87;78.74;96497.19;5045274;28;20313;-65
2021/12/03 09:15:16;;;;;;;40.97;20.13;;;;;;;5.93;78.21;96484.09;5045342;28;20274;-65
2021/12/03 09:18:12;;;;;;;28.30;18.70;;;;;;;6.02;78.46;96494.88;5047650;28;20638;-65
2021/12/03 09:26:15;;;;;;;25.63;15.80;;;;;;;6.16;78.08;96481.53;5049372;28;20199;-65
2021/12/03 09:28:50;;;;;;;24.10;13.73;;;;;;;6.18;79.38;96484.88;5049954;28;20214;-64
2021/12/03 09:31:17;;;;;;;27.63;16.33;;;;;;;6.23;78.23;96485.53;5063404;28;20797;-65
2021/12/03 09:33:47;;;;;;;20.23;13.40;;;;;;;6.27;79.01;96476.81;5049532;28;20618;-66
2021/12/03 09:36:14;;;;;;;21.57;12.97;;;;;;;6.41;79.00;96474.53;5048815;28;20193;-66
2021/12/03 09:38:42;;;;;;;26.67;14.63;;;;;;;6.49;77.93;96475.94;5049250;28;20703;-64
2021/12/03 09:41:11;;;;;;;20.83;12.70;;;;;;;6.49;77.34;96472.53;5048996;28;20195;-65
2021/12/03 09:43:47;;;;;;;24.33;14.33;;;;;;;6.62;77.08;96483.16;5048399;28;20251;-65
2021/12/03 09:46:22;;;;;;;25.77;15.97;;;;;;;6.64;77.45;96465.94;5049649;28;20284;-66
2021/12/03 09:52:22;;;;;;;26.67;17.50;;;;;;;6.75;76.84;96469.78;5048909;28;20288;-65
2021/12/03 09:57:07;;;;;;;34.40;22.70;;;;;;;6.53;77.40;96459.47;5048420;28;20291;-65
2021/12/03 10:15:14;;;;;;;44.67;27.73;;;;;;;6.85;76.12;96462.50;5048089;28;20196;-65
2021/12/03 10:24:32;;;;;;;49.70;28.20;;;;;;;6.98;74.80;96489.44;5048004;28;20566;-62
2021/12/03 10:26:42;;;;;;;39.33;25.63;;;;;;;6.82;75.62;96466.03;5039481;28;20207;-65
2021/12/03 10:34:54;;;;;;;51.03;27.70;;;;;;;6.95;75.84;96461.22;5047998;28;20220;-63
2021/12/03 10:40:09;;;;;;;27.73;17.17;;;;;;;7.00;75.68;96470.47;5047347;28;20211;-65
2021/12/03 10:42:56;;;;;;;17.53;11.43;;;;;;;7.09;74.80;96456.38;5048227;28;20211;-65
2021/12/03 10:45:35;;;;;;;17.83;11.93;;;;;;;7.00;75.72;96449.88;5048306;28;20208;-63
2021/12/03 10:48:21;;;;;;;18.20;12.30;;;;;;;6.98;75.35;96464.53;5046396;28;20204;-65
2021/12/03 10:51:13;;;;;;;27.63;15.90;;;;;;;7.15;75.55;96441.50;5048541;28;20182;-63
2021/12/03 10:53:52;;;;;;;21.50;12.93;;;;;;;7.24;75.29;96432.53;5047664;28;20797;-64
2021/12/03 11:45:07;;;;;;;32.67;19.90;;;;;;;7.96;72.20;96382.09;5044071;28;20259;-65
2021/12/03 13:20:15;;;;;;;35.13;19.83;;;;;;;8.54;75.08;96351.81;5044977;28;20210;-65
2021/12/03 13:22:57;;;;;;;29.20;18.63;;;;;;;8.63;75.73;96343.66;5045792;28;20590;-66
2021/12/03 13:39:58;;;;;;;36.57;20.80;;;;;;;8.66;75.94;96335.72;5046018;28;20664;-63
2021/12/03 14:57:10;;;;;;;55.70;32.53;;;;;;;8.28;80.35;96309.25;5068396;28;20193;-66
2021/12/03 14:59:42;;;;;;;46.63;30.97;;;;;;;8.34;79.71;96316.69;5066183;28;20197;-65
2021/12/03 15:09:42;;;;;;;50.57;30.27;;;;;;;8.34;80.23;96321.84;5068193;28;20200;-65
2021/12/03 15:25:29;;;;;;;51.70;31.87;;;;;;;8.20;80.60;96371.47;5047380;28;20198;-63
2021/12/03 15:30:50;;;;;;;57.17;33.93;;;;;;;8.21;80.65;96378.31;5047452;28;20209;-66
2021/12/03 15:33:29;;;;;;;51.87;33.63;;;;;;;8.21;80.89;96367.16;5046511;28;20724;-63
2021/12/03 15:36:04;;;;;;;59.10;34.43;;;;;;;8.19;81.12;96367.22;5062605;28;20189;-66
2021/12/03 15:39:07;;;;;;;52.70;32.23;;;;;;;8.07;80.47;96375.53;5047257;28;20223;-62
2021/12/03 15:51:53;;;;;;;52.90;33.33;;;;;;;7.98;80.90;96378.53;5046647;28;20197;-62
2021/12/03 16:09:12;;;;;;;56.17;34.13;;;;;;;7.91;80.98;96386.63;5053444;28;20272;-63
2021/12/03 16:15:00;;;;;;;42.97;29.07;;;;;;;7.95;81.01;96393.31;5077991;28;20236;-63
2021/12/03 16:23:27;;;;;;;43.10;25.43;;;;;;;8.20;80.46;96402.41;5065395;28;20204;-62
2021/12/03 16:53:26;;;;;;;54.50;34.10;;;;;;;7.74;80.72;96413.16;5067010;28;20683;-64
2021/12/03 16:56:34;;;;;;;65.93;38.13;;;;;;;7.70;81.39;96411.63;5066266;28;20196;-65
2021/12/03 16:59:00;;;;;;;70.67;40.50;;;;;;;7.63;81.19;96406.78;5066027;28;20212;-63
2021/12/03 17:09:59;;;;;;;93.40;47.40;;;;;;;7.48;81.99;96410.06;5066287;28;20208;-62
2021/12/03 17:44:44;;;;;;;93.97;50.63;;;;;;;6.68;86.77;96460.59;5069973;28;20195;-64
2021/12/03 17:47:27;;;;;;;93.07;51.53;;;;;;;6.69;85.89;96461.47;5069203;28;20196;-64
2021/12/03 17:53:07;;;;;;;70.67;42.03;;;;;;;6.73;86.37;96469.00;5069772;28;20192;-63
2021/12/03 17:58:29;;;;;;;68.60;40.67;;;;;;;6.83;86.44;96464.31;5069908;28;20211;-66
2021/12/03 18:01:03;;;;;;;67.57;41.63;;;;;;;6.92;85.22;96476.81;5069304;28;20723;-62
2021/12/03 18:43:12;;;;;;;73.10;41.47;;;;;;;7.16;84.74;96465.50;5069568;28;20585;-66
2021/12/03 18:52:39;;;;;;;77.10;45.20;;;;;;;7.31;85.08;96470.03;5068517;28;20203;-63
2021/12/03 18:55:10;;;;;;;69.67;40.03;;;;;;;7.22;84.74;96468.66;5068512;28;20225;-63
2021/12/03 18:57:43;;;;;;;69.10;38.63;;;;;;;7.18;84.21;96471.44;5067616;28;20201;-63
2021/12/03 19:00:18;;;;;;;64.70;38.10;;;;;;;7.13;85.40;96465.66;5066755;28;20189;-64
2021/12/03 19:02:50;;;;;;;79.13;47.03;;;;;;;7.16;85.11;96470.66;5068667;28;20196;-62
2021/12/03 19:05:30;;;;;;;73.90;44.97;;;;;;;7.15;85.25;96463.84;5068163;28;20263;-63
2021/12/03 19:08:29;;;;;;;81.83;45.83;;;;;;;7.21;85.00;96474.69;5068081;28;20206;-62
2021/12/03 19:10:47;;;;;;;89.80;48.80;;;;;;;7.21;85.09;96469.56;5068528;28;20204;-62